Time,TemperatureF,DewpointF,PressureIn,WindDirection,WindDirectionDegrees,WindSpeedMPH,WindSpeedGustMPH,Humidity,HourlyPrecipIn,Conditions,Clouds,dailyrainin,SolarRadiationWatts/m^2,SoftwareType,DateUTC
2013-05-19 00:11:00,58.0,56.0,-100.00,SE,126,3.0,4.0,92,0.00,,,0.00,0.000000,,2013-05-19 07:11:00,
2013-05-19 00:21:00,58.0,56.0,-100.00,SE,126,3.0,4.0,92,0.00,,,0.00,0.000000,,2013-05-19 07:21:00,
2013-05-19 00:32:00,58.0,56.0,-100.00,SE,126,3.0,4.0,92,0.00,,,0.00,0.000000,,2013-05-19 07:32:00,
2013-05-19 00:41:00,58.0,56.0,-100.00,SE,126,3.0,4.0,92,0.00,,,0.00,0.000000,,2013-05-19 07:41:00,
2013-05-19 00:51:00,56.0,54.0,-100.00,East,97,3.0,6.0,94,0.00,,,0.00,0.000000,,2013-05-19 07:51:00,
2013-05-19 01:12:00,56.0,54.0,-100.00,East,97,3.0,6.0,94,0.00,,,0.00,0.000000,,2013-05-19 08:12:00,
2013-05-19 01:21:00,56.0,54.0,-100.00,East,97,3.0,6.0,94,0.00,,,0.00,0.000000,,2013-05-19 08:21:00,
2013-05-19 01:32:00,56.0,54.0,-100.00,East,97,3.0,6.0,94,0.00,,,0.00,0.000000,,2013-05-19 08:32:00,
2013-05-19 01:41:00,56.0,54.0,-100.00,East,97,3.0,6.0,94,0.00,,,0.00,0.000000,,2013-05-19 08:41:00,
2013-05-19 01:51:00,56.0,54.0,-100.00,ENE,65,3.0,5.0,93,0.00,,,0.00,0.000000,,2013-05-19 08:51:00,
2013-05-19 02:11:00,56.0,54.0,-100.00,ENE,65,3.0,5.0,93,0.00,,,0.00,0.000000,,2013-05-19 09:11:00,
2013-05-19 02:21:00,56.0,54.0,-100.00,ENE,65,3.0,5.0,93,0.00,,,0.00,0.000000,,2013-05-19 09:21:00,
2013-05-19 02:32:00,56.0,54.0,-100.00,ENE,65,3.0,5.0,93,0.00,,,0.00,0.000000,,2013-05-19 09:32:00,
2013-05-19 02:42:00,56.0,54.0,-100.00,ENE,65,3.0,5.0,93,0.00,,,0.00,0.000000,,2013-05-19 09:42:00,
2013-05-19 02:51:00,55.0,54.0,-100.00,WSW,258,1.0,3.0,98,0.00,,,0.00,0.000000,,2013-05-19 09:51:00,
2013-05-19 03:12:00,55.0,54.0,-100.00,WSW,258,1.0,3.0,98,0.00,,,0.00,0.000000,,2013-05-19 10:12:00,
2013-05-19 03:22:00,55.0,54.0,-100.00,WSW,258,1.0,3.0,98,0.00,,,0.00,0.000000,,2013-05-19 10:22:00,
2013-05-19 03:32:00,55.0,54.0,-100.00,WSW,258,1.0,3.0,98,0.00,,,0.00,0.000000,,2013-05-19 10:32:00,
2013-05-19 03:42:00,55.0,54.0,-100.00,WSW,258,1.0,3.0,98,0.00,,,0.00,0.000000,,2013-05-19 10:42:00,
2013-05-19 03:51:00,53.0,53.0,-100.00,East,86,3.0,4.0,100,0.00,,,0.00,0.000000,,2013-05-19 10:51:00,
2013-05-19 04:11:00,53.0,53.0,-100.00,East,86,3.0,4.0,100,0.00,,,0.00,0.000000,,2013-05-19 11:11:00,
2013-05-19 04:21:00,53.0,53.0,-100.00,East,86,3.0,4.0,100,0.00,,,0.00,0.000000,,2013-05-19 11:21:00,
2013-05-19 04:32:00,53.0,53.0,-100.00,East,86,3.0,4.0,100,0.00,,,0.00,0.000000,,2013-05-19 11:32:00,
2013-05-19 04:42:00,53.0,53.0,-100.00,East,86,3.0,4.0,100,0.00,,,0.00,0.000000,,2013-05-19 11:42:00,
2013-05-19 04:51:00,53.0,53.0,-100.00,East,100,3.0,5.0,100,0.00,,,0.00,0.000000,,2013-05-19 11:51:00,
2013-05-19 05:21:00,53.0,53.0,-100.00,East,100,3.0,5.0,100,0.00,,,0.00,0.000000,,2013-05-19 12:21:00,
2013-05-19 05:31:00,53.0,53.0,-100.00,East,100,3.0,5.0,100,0.00,,,0.00,0.000000,,2013-05-19 12:31:00,
2013-05-19 05:41:00,53.0,53.0,-100.00,East,100,3.0,5.0,100,0.00,,,0.00,0.000000,,2013-05-19 12:41:00,
2013-05-19 05:51:00,52.0,52.0,-100.00,ENE,63,4.0,6.0,100,0.00,,,0.00,1.000000,,2013-05-19 12:51:00,
2013-05-19 06:21:00,52.0,52.0,-100.00,ENE,63,4.0,6.0,100,0.00,,,0.00,1.000000,,2013-05-19 13:21:00,
2013-05-19 06:31:00,52.0,52.0,-100.00,ENE,63,4.0,6.0,100,0.00,,,0.00,1.000000,,2013-05-19 13:31:00,
2013-05-19 06:42:00,52.0,52.0,-100.00,ENE,63,4.0,6.0,100,0.00,,,0.00,1.000000,,2013-05-19 13:42:00,
2013-05-19 06:51:00,54.0,54.0,-100.00,ENE,61,5.0,7.0,99,0.00,,,-99.99,47.000000,,2013-05-19 13:51:00,
2013-05-19 07:21:00,54.0,54.0,-100.00,ENE,61,5.0,7.0,99,0.00,,,-99.99,47.000000,,2013-05-19 14:21:00,
2013-05-19 07:32:00,54.0,54.0,-100.00,ENE,61,5.0,7.0,99,0.00,,,-99.99,47.000000,,2013-05-19 14:32:00,
2013-05-19 07:41:00,54.0,54.0,-100.00,ENE,61,5.0,7.0,99,0.00,,,-99.99,47.000000,,2013-05-19 14:41:00,
2013-05-19 07:51:00,59.0,54.0,-100.00,North,358,3.0,5.0,85,0.00,,,0.00,175.000000,,2013-05-19 14:51:00,
2013-05-19 08:11:00,59.0,54.0,-100.00,North,358,3.0,5.0,85,0.00,,,0.00,175.000000,,2013-05-19 15:11:00,
2013-05-19 08:21:00,59.0,54.0,-100.00,North,358,3.0,5.0,85,0.00,,,0.00,175.000000,,2013-05-19 15:21:00,
2013-05-19 08:33:00,59.0,54.0,-100.00,North,358,3.0,5.0,85,0.00,,,0.00,175.000000,,2013-05-19 15:33:00,
2013-05-19 08:43:00,59.0,54.0,-100.00,North,358,3.0,5.0,85,0.00,,,0.00,175.000000,,2013-05-19 15:43:00,
2013-05-19 08:51:00,63.0,55.0,-100.00,North,359,2.0,8.0,75,0.00,,,0.00,340.000000,,2013-05-19 15:51:00,
2013-05-19 09:23:00,63.0,55.0,-100.00,North,359,2.0,8.0,75,0.00,,,0.00,340.000000,,2013-05-19 16:23:00,
2013-05-19 09:32:00,63.0,55.0,-100.00,North,359,2.0,8.0,75,0.00,,,0.00,340.000000,,2013-05-19 16:32:00,
2013-05-19 09:42:00,63.0,55.0,-100.00,North,359,2.0,8.0,75,0.00,,,0.00,340.000000,,2013-05-19 16:42:00,
2013-05-19 09:51:00,66.0,54.0,-100.00,WSW,257,6.0,10.0,65,0.00,,,0.00,616.000000,,2013-05-19 16:51:00,
2013-05-19 10:12:00,66.0,54.0,-100.00,WSW,257,6.0,10.0,65,0.00,,,0.00,616.000000,,2013-05-19 17:12:00,
2013-05-19 10:22:00,66.0,54.0,-100.00,WSW,257,6.0,10.0,65,0.00,,,0.00,616.000000,,2013-05-19 17:22:00,
2013-05-19 10:32:00,66.0,54.0,-100.00,WSW,257,6.0,10.0,65,0.00,,,0.00,616.000000,,2013-05-19 17:32:00,
2013-05-19 10:42:00,66.0,54.0,-100.00,WSW,257,6.0,10.0,65,0.00,,,0.00,616.000000,,2013-05-19 17:42:00,
2013-05-19 10:51:00,71.0,54.0,-100.00,WNW,299,8.0,14.0,55,0.00,,,0.00,793.000000,,2013-05-19 17:51:00,
2013-05-19 11:21:00,71.0,54.0,-100.00,WNW,299,8.0,14.0,55,0.00,,,0.00,793.000000,,2013-05-19 18:21:00,
2013-05-19 11:32:00,71.0,54.0,-100.00,WNW,299,8.0,14.0,55,0.00,,,0.00,793.000000,,2013-05-19 18:32:00,
2013-05-19 11:42:00,71.0,54.0,-100.00,WNW,299,8.0,14.0,55,0.00,,,0.00,793.000000,,2013-05-19 18:42:00,
2013-05-19 11:51:00,73.0,55.0,-100.00,WSW,254,11.0,18.0,53,0.00,,,0.00,907.000000,,2013-05-19 18:51:00,
2013-05-19 12:11:00,73.0,55.0,-100.00,WSW,254,11.0,18.0,53,0.00,,,0.00,907.000000,,2013-05-19 19:11:00,
2013-05-19 12:21:00,73.0,55.0,-100.00,WSW,254,11.0,18.0,53,0.00,,,0.00,907.000000,,2013-05-19 19:21:00,
2013-05-19 12:32:00,73.0,55.0,-100.00,WSW,254,11.0,18.0,53,0.00,,,0.00,907.000000,,2013-05-19 19:32:00,
2013-05-19 12:42:00,73.0,55.0,-100.00,WSW,254,11.0,18.0,53,0.00,,,0.00,907.000000,,2013-05-19 19:42:00,
2013-05-19 12:51:00,73.0,55.0,-100.00,West,267,13.0,19.0,54,0.00,,,0.00,963.000000,,2013-05-19 19:51:00,
2013-05-19 13:11:00,73.0,55.0,-100.00,West,267,13.0,19.0,54,0.00,,,0.00,963.000000,,2013-05-19 20:11:00,
2013-05-19 13:21:00,73.0,55.0,-100.00,West,267,13.0,19.0,54,0.00,,,0.00,963.000000,,2013-05-19 20:21:00,
2013-05-19 13:31:00,73.0,55.0,-100.00,West,267,13.0,19.0,54,0.00,,,0.00,963.000000,,2013-05-19 20:31:00,
2013-05-19 13:41:00,73.0,55.0,-100.00,West,267,13.0,19.0,54,0.00,,,0.00,963.000000,,2013-05-19 20:41:00,
2013-05-19 13:51:00,72.0,55.0,-100.00,WSW,258,14.0,20.0,55,0.00,,,0.00,965.000000,,2013-05-19 20:51:00,
2013-05-19 14:11:00,72.0,55.0,-100.00,WSW,258,14.0,20.0,55,0.00,,,0.00,965.000000,,2013-05-19 21:11:00,
2013-05-19 14:22:00,72.0,55.0,-100.00,WSW,258,14.0,20.0,55,0.00,,,0.00,965.000000,,2013-05-19 21:22:00,
2013-05-19 14:32:00,72.0,55.0,-100.00,WSW,258,14.0,20.0,55,0.00,,,0.00,965.000000,,2013-05-19 21:32:00,
2013-05-19 14:43:00,72.0,55.0,-100.00,WSW,258,14.0,20.0,55,0.00,,,0.00,965.000000,,2013-05-19 21:43:00,
2013-05-19 14:51:00,73.0,56.0,-100.00,WSW,250,13.0,19.0,55,0.00,,,0.00,912.000000,,2013-05-19 21:51:00,
2013-05-19 15:12:00,73.0,56.0,-100.00,WSW,250,13.0,19.0,55,0.00,,,0.00,912.000000,,2013-05-19 22:12:00,
2013-05-19 15:23:00,73.0,56.0,-100.00,WSW,250,13.0,19.0,55,0.00,,,0.00,912.000000,,2013-05-19 22:23:00,
2013-05-19 15:33:00,73.0,56.0,-100.00,WSW,250,13.0,19.0,55,0.00,,,0.00,912.000000,,2013-05-19 22:33:00,
2013-05-19 15:42:00,73.0,56.0,-100.00,WSW,250,13.0,19.0,55,0.00,,,0.00,912.000000,,2013-05-19 22:42:00,
2013-05-19 15:51:00,72.0,56.0,-100.00,WSW,250,13.0,19.0,57,0.00,,,0.00,799.000000,,2013-05-19 22:51:00,
2013-05-19 16:21:00,72.0,56.0,-100.00,WSW,250,13.0,19.0,57,0.00,,,0.00,799.000000,,2013-05-19 23:21:00,
2013-05-19 16:32:00,72.0,56.0,-100.00,WSW,250,13.0,19.0,57,0.00,,,0.00,799.000000,,2013-05-19 23:32:00,
2013-05-19 16:42:00,72.0,56.0,-100.00,WSW,250,13.0,19.0,57,0.00,,,0.00,799.000000,,2013-05-19 23:42:00,
2013-05-19 16:51:00,71.0,55.0,-100.00,WSW,249,12.0,18.0,58,0.00,,,-99.99,637.000000,,2013-05-19 23:51:00,
2013-05-19 17:21:00,71.0,55.0,-100.00,WSW,249,12.0,18.0,58,0.00,,,-99.99,637.000000,,2013-05-20 00:21:00,
2013-05-19 17:32:00,71.0,55.0,-100.00,WSW,249,12.0,18.0,58,0.00,,,-99.99,637.000000,,2013-05-20 00:32:00,
2013-05-19 17:41:00,71.0,55.0,-100.00,WSW,249,12.0,18.0,58,0.00,,,-99.99,637.000000,,2013-05-20 00:41:00,
2013-05-19 17:51:00,71.0,56.0,-100.00,WSW,256,9.0,15.0,59,0.00,,,0.00,447.000000,,2013-05-20 00:51:00,
2013-05-19 18:11:00,71.0,56.0,-100.00,WSW,256,9.0,15.0,59,0.00,,,0.00,447.000000,,2013-05-20 01:11:00,
2013-05-19 18:21:00,71.0,56.0,-100.00,WSW,256,9.0,15.0,59,0.00,,,0.00,447.000000,,2013-05-20 01:21:00,
2013-05-19 18:31:00,71.0,56.0,-100.00,WSW,256,9.0,15.0,59,0.00,,,0.00,447.000000,,2013-05-20 01:31:00,
2013-05-19 18:42:00,71.0,56.0,-100.00,WSW,256,9.0,15.0,59,0.00,,,0.00,447.000000,,2013-05-20 01:42:00,
2013-05-19 18:51:00,69.0,55.0,-100.00,WSW,254,7.0,12.0,62,0.00,,,0.00,241.000000,,2013-05-20 01:51:00,
2013-05-19 19:21:00,69.0,55.0,-100.00,WSW,254,7.0,12.0,62,0.00,,,0.00,241.000000,,2013-05-20 02:21:00,
2013-05-19 19:31:00,69.0,55.0,-100.00,WSW,254,7.0,12.0,62,0.00,,,0.00,241.000000,,2013-05-20 02:31:00,
2013-05-19 19:42:00,69.0,55.0,-100.00,WSW,254,7.0,12.0,62,0.00,,,0.00,241.000000,,2013-05-20 02:42:00,
2013-05-19 19:51:00,63.0,56.0,-100.00,WSW,248,7.0,10.0,77,0.00,,,0.00,57.000000,,2013-05-20 02:51:00,
2013-05-19 20:11:00,63.0,56.0,-100.00,WSW,248,7.0,10.0,77,0.00,,,0.00,57.000000,,2013-05-20 03:11:00,
2013-05-19 20:21:00,63.0,56.0,-100.00,WSW,248,7.0,10.0,77,0.00,,,0.00,57.000000,,2013-05-20 03:21:00,
2013-05-19 20:33:00,63.0,56.0,-100.00,WSW,248,7.0,10.0,77,0.00,,,0.00,57.000000,,2013-05-20 03:33:00,
2013-05-19 20:42:00,63.0,56.0,-100.00,WSW,248,7.0,10.0,77,0.00,,,0.00,57.000000,,2013-05-20 03:42:00,
2013-05-19 20:51:00,61.0,55.0,-100.00,SSE,168,4.0,7.0,82,0.00,,,0.00,0.000000,,2013-05-20 03:51:00,
2013-05-19 21:23:00,61.0,55.0,-100.00,SSE,168,4.0,7.0,82,0.00,,,0.00,0.000000,,2013-05-20 04:23:00,
2013-05-19 21:33:00,61.0,55.0,-100.00,SSE,168,4.0,7.0,82,0.00,,,0.00,0.000000,,2013-05-20 04:33:00,
2013-05-19 21:42:00,61.0,55.0,-100.00,SSE,168,4.0,7.0,82,0.00,,,0.00,0.000000,,2013-05-20 04:42:00,
2013-05-19 21:51:00,60.0,56.0,-100.00,SW,234,2.0,6.0,86,0.00,,,0.00,0.000000,,2013-05-20 04:51:00,
2013-05-19 22:12:00,60.0,56.0,-100.00,SW,234,2.0,6.0,86,0.00,,,0.00,0.000000,,2013-05-20 05:12:00,
2013-05-19 22:21:00,60.0,56.0,-100.00,SW,234,2.0,6.0,86,0.00,,,0.00,0.000000,,2013-05-20 05:21:00,
2013-05-19 22:32:00,60.0,56.0,-100.00,SW,234,2.0,6.0,86,0.00,,,0.00,0.000000,,2013-05-20 05:32:00,
2013-05-19 22:42:00,60.0,56.0,-100.00,SW,234,2.0,6.0,86,0.00,,,0.00,0.000000,,2013-05-20 05:42:00,
2013-05-19 22:51:00,58.0,54.0,-100.00,ESE,104,1.0,4.0,88,0.00,,,0.00,0.000000,,2013-05-20 05:51:00,
2013-05-19 23:21:00,58.0,54.0,-100.00,ESE,104,1.0,4.0,88,0.00,,,0.00,0.000000,,2013-05-20 06:21:00,
2013-05-19 23:32:00,58.0,54.0,-100.00,ESE,104,1.0,4.0,88,0.00,,,0.00,0.000000,,2013-05-20 06:32:00,
2013-05-19 23:41:00,58.0,54.0,-100.00,ESE,104,1.0,4.0,88,0.00,,,0.00,0.000000,,2013-05-20 06:41:00,
2013-05-19 23:51:00,58.0,54.0,-100.00,East,95,3.0,6.0,88,0.00,,,0.00,0.000000,,2013-05-20 06:51:00,